createdAt,value
2023-01-12T01:39:36.676Z,5.30
2023-01-12T01:59:50.653Z,2.13
2023-01-12T02:41:10.179Z,2.95
2023-01-12T02:43:38.657Z,3.58
2023-01-12T02:54:43.188Z,2.45
2023-01-12T04:04:50.461Z,1.90
2023-01-12T04:40:38.832Z,2.33
2023-01-12T04:43:17.872Z,3.05
2023-01-12T04:46:44.901Z,3.00
2023-01-12T04:49:37.392Z,2.70
2023-01-12T04:52:14.778Z,2.78
2023-01-12T04:55:32.547Z,1.92
2023-01-12T06:21:49.895Z,2.78
2023-01-12T06:24:17.070Z,3.15
2023-01-12T06:26:45.240Z,2.20
2023-01-12T06:59:30.128Z,2.38
2023-01-12T07:01:57.354Z,2.60
2023-01-12T07:04:24.743Z,2.35
2023-01-12T07:06:55.260Z,2.10
2023-01-12T07:09:22.436Z,2.65
2023-01-12T07:11:49.792Z,3.00
2023-01-12T07:14:17.046Z,2.13
2023-01-12T07:16:44.129Z,2.22
2023-01-12T07:19:11.339Z,2.85
2023-01-12T07:21:38.448Z,2.40
2023-01-12T07:24:05.831Z,2.30
2023-01-12T07:26:33.008Z,2.03
2023-01-12T07:29:00.177Z,2.00
2023-01-12T07:31:27.608Z,2.05
2023-01-12T07:33:54.714Z,2.70
2023-01-12T07:36:22.525Z,2.78
2023-01-12T07:38:49.576Z,3.03
2023-01-12T07:41:35.461Z,2.15
2023-01-12T07:44:02.748Z,2.63
2023-01-12T07:46:30.140Z,2.55
2023-01-12T07:48:57.256Z,2.70
2023-01-12T07:51:24.372Z,2.60
2023-01-12T07:53:51.490Z,2.35
2023-01-12T07:56:19.148Z,3.05
2023-01-12T07:58:49.532Z,2.33
2023-01-12T08:01:16.944Z,2.70
2023-01-12T08:03:44.190Z,2.33
2023-01-12T08:06:11.389Z,2.15
2023-01-12T08:08:38.502Z,2.80
2023-01-12T08:11:07.907Z,2.75
2023-01-12T08:13:35.474Z,2.88
2023-01-12T08:16:08.091Z,2.20
2023-01-12T08:18:50.097Z,2.47
2023-01-12T08:21:20.894Z,2.40
2023-01-12T08:23:51.021Z,2.95
2023-01-12T08:26:23.850Z,2.10
2023-01-12T08:28:58.199Z,2.95
2023-01-12T08:31:26.237Z,2.10
2023-01-12T08:33:54.528Z,2.30
2023-01-12T08:36:22.332Z,2.50
2023-01-12T08:38:49.500Z,2.08
2023-01-12T08:41:37.389Z,2.70
2023-01-12T08:44:10.951Z,2.58
2023-01-12T08:46:40.470Z,2.00
2023-01-12T08:49:09.705Z,2.08
2023-01-12T08:51:39.382Z,2.65
2023-01-12T08:54:11.344Z,2.10
2023-01-12T08:56:38.586Z,2.08
2023-01-12T08:59:05.862Z,2.45
2023-01-12T09:01:33.570Z,2.08
2023-01-12T09:04:00.977Z,2.05
2023-01-12T09:06:30.828Z,2.30
2023-01-12T09:08:59.855Z,2.45
2023-01-12T09:11:28.989Z,2.13
2023-01-12T09:13:58.443Z,2.00
2023-01-12T09:16:27.164Z,2.15
2023-01-12T09:18:54.383Z,2.15
2023-01-12T09:21:23.068Z,2.17
2023-01-12T09:23:50.680Z,2.20
2023-01-12T09:26:22.487Z,2.08
2023-01-12T09:28:51.349Z,1.95
2023-01-12T09:31:20.799Z,2.10
2023-01-12T09:33:48.554Z,2.35
2023-01-12T09:36:26.841Z,1.50
2023-01-12T09:38:54.240Z,1.95
2023-01-12T09:41:43.292Z,1.60
2023-01-12T09:44:44.086Z,2.20
2023-01-12T09:47:32.768Z,2.17
2023-01-12T09:50:11.296Z,2.10
2023-01-12T09:52:44.799Z,2.00
2023-01-12T09:55:21.158Z,2.35
2023-01-12T09:57:57.800Z,2.22
2023-01-12T10:00:25.147Z,1.95
2023-01-12T10:03:14.715Z,2.40
2023-01-12T10:05:49.560Z,1.80
2023-01-12T10:08:54.209Z,2.20
2023-01-12T10:11:39.447Z,2.10
2023-01-12T10:14:32.678Z,1.53
2023-01-12T10:17:08.036Z,2.03
2023-01-12T10:19:51.159Z,2.05
2023-01-12T10:22:37.320Z,2.03
2023-01-12T10:25:26.072Z,2.28
2023-01-12T10:27:56.769Z,2.17
2023-01-12T10:30:32.572Z,2.47
2023-01-12T10:33:31.819Z,2.83
2023-01-12T10:35:59.624Z,2.22
2023-01-12T10:38:31.284Z,1.55
2023-01-12T10:41:17.070Z,2.20
2023-01-12T10:43:46.816Z,2.20
2023-01-12T10:46:17.639Z,2.88
2023-01-12T10:48:46.993Z,2.30
2023-01-12T10:51:22.380Z,2.35
2023-01-12T10:53:54.056Z,1.92
2023-01-12T10:56:36.547Z,2.03
2023-01-12T10:59:14.801Z,2.35
2023-01-12T11:01:53.337Z,2.70
2023-01-12T11:04:22.827Z,2.55
2023-01-12T11:07:15.609Z,2.13
2023-01-12T11:09:43.815Z,2.92
2023-01-12T11:12:33.701Z,1.95
2023-01-12T11:15:15.416Z,2.05
2023-01-12T11:17:58.690Z,1.67
2023-01-12T11:20:28.908Z,2.33
2023-01-12T11:23:00.552Z,2.10
2023-01-12T11:25:32.258Z,2.00
2023-01-12T11:28:22.626Z,2.10
2023-01-12T11:31:06.142Z,2.42
2023-01-12T11:33:42.791Z,1.88
2023-01-12T11:36:12.288Z,2.47
2023-01-12T11:38:41.552Z,1.85
2023-01-12T11:41:13.657Z,2.08
2023-01-12T11:43:55.693Z,2.65
2023-01-12T11:46:29.109Z,1.63
2023-01-12T11:49:37.560Z,1.55
2023-01-12T11:52:04.855Z,1.40
2023-01-12T11:54:32.092Z,1.73
2023-01-12T11:57:11.074Z,2.55
2023-01-12T12:00:15.524Z,2.55
2023-01-12T12:03:22.890Z,1.55
2023-01-12T12:06:29.260Z,2.15
2023-01-12T12:09:22.005Z,1.88
2023-01-12T12:12:12.497Z,1.50
2023-01-12T12:14:50.317Z,1.63
2023-01-12T12:17:42.381Z,1.92
2023-01-12T12:20:36.245Z,1.60
2023-01-12T12:23:25.416Z,1.42
2023-01-12T12:25:52.473Z,1.77
2023-01-12T12:28:44.343Z,1.50
2023-01-12T12:31:21.260Z,1.83
2023-01-12T12:34:15.385Z,0.98
2023-01-12T12:37:19.708Z,1.13
2023-01-12T12:40:14.475Z,1.90
2023-01-12T12:43:35.905Z,2.10
2023-01-12T12:46:06.846Z,1.00
2023-01-12T12:48:44.673Z,1.30
2023-01-12T12:51:13.100Z,1.45
2023-01-12T12:53:42.002Z,1.08
2023-01-12T12:56:14.366Z,1.00
2023-01-12T12:58:43.509Z,1.10
2023-01-12T13:01:19.732Z,1.42
2023-01-12T13:04:00.516Z,1.27
2023-01-12T13:06:39.020Z,0.80
2023-01-12T13:09:09.271Z,0.90
2023-01-12T13:12:00.497Z,1.10
2023-01-12T13:15:15.058Z,1.00
2023-01-12T13:17:44.630Z,1.13
2023-01-12T13:20:24.734Z,1.00
2023-01-12T13:22:52.375Z,1.02
2023-01-12T13:25:19.413Z,0.93
2023-01-12T13:28:09.611Z,0.90
2023-01-12T13:30:40.308Z,0.73
2023-01-12T13:33:29.713Z,1.08
2023-01-12T13:36:02.172Z,0.90
2023-01-12T13:38:43.718Z,1.00
2023-01-12T13:41:13.591Z,0.80
2023-01-12T13:43:50.025Z,0.80
2023-01-12T13:46:28.095Z,1.08
2023-01-12T13:48:55.912Z,1.10
2023-01-12T13:51:29.579Z,0.75
2023-01-12T13:54:14.884Z,0.93
2023-01-12T13:56:42.961Z,0.90
2023-01-12T13:59:19.236Z,0.98
2023-01-12T14:01:48.047Z,1.05
2023-01-12T14:04:17.382Z,0.90
2023-01-12T14:07:10.507Z,0.70
2023-01-12T14:09:57.499Z,1.17
2023-01-12T14:12:37.564Z,0.90
2023-01-12T14:15:36.806Z,1.17
2023-01-12T14:18:15.832Z,0.80
2023-01-12T14:20:54.529Z,1.02
2023-01-12T14:23:27.410Z,0.90
2023-01-12T14:26:13.799Z,0.65
2023-01-12T14:28:46.158Z,0.90
2023-01-12T14:31:27.457Z,0.57
2023-01-12T14:33:57.011Z,0.82
2023-01-12T14:36:30.009Z,1.42
2023-01-12T14:38:58.649Z,0.77
2023-01-12T14:51:17.180Z,0.98
2023-01-12T14:53:46.485Z,0.75
2023-01-12T14:56:23.269Z,0.60
2023-01-12T15:25:36.597Z,0.55
2023-01-12T17:23:48.446Z,0.82
